Time;durP1;ratioP1;P1;durP2;ratioP2;P2;SDS_P1;SDS_P2;PMS_P1;PMS_P2;Temp;Humidity;BMP_temperature;BMP_pressure;BME280_temperature;BME280_humidity;BME280_pressure;Samples;Min_cycle;Max_cycle;Signal;HPM_P1;HPM_P2
2021/10/21 00:02:00;;;;;;;3.28;1.13;;;15.80;99.90;;;;;;5077586;28;20036;-76
2021/10/21 00:04:28;;;;;;;3.10;1.13;;;15.80;99.90;;;;;;5064020;28;20036;-75
2021/10/21 00:06:54;;;;;;;2.83;1.25;;;15.80;99.90;;;;;;5080390;28;20463;-75
2021/10/21 00:09:20;;;;;;;5.03;1.42;;;15.80;99.90;;;;;;5082212;28;20025;-75
2021/10/21 00:11:45;;;;;;;2.30;1.33;;;15.70;99.90;;;;;;5082570;28;20051;-75
2021/10/21 00:14:11;;;;;;;2.60;1.17;;;15.80;99.90;;;;;;5077055;28;20113;-75
2021/10/21 00:16:37;;;;;;;3.28;1.52;;;15.70;99.90;;;;;;5077962;28;20150;-75
2021/10/21 00:19:03;;;;;;;4.32;1.50;;;15.70;99.90;;;;;;5071710;28;20024;-75
2021/10/21 00:21:28;;;;;;;7.22;1.60;;;15.70;99.90;;;;;;5063290;28;20028;-75
2021/10/21 00:23:54;;;;;;;3.00;1.30;;;15.70;99.90;;;;;;5085158;28;20063;-77
2021/10/21 00:26:19;;;;;;;10.15;1.73;;;15.80;99.90;;;;;;5071370;28;20073;-77
2021/10/21 00:28:45;;;;;;;3.85;1.35;;;15.80;99.90;;;;;;5086942;28;20117;-75
2021/10/21 00:31:12;;;;;;;2.88;1.38;;;15.90;99.90;;;;;;5080217;28;20107;-75
2021/10/21 00:33:38;;;;;;;3.78;1.50;;;16.00;99.90;;;;;;5077102;28;20016;-74
2021/10/21 00:36:03;;;;;;;2.78;1.25;;;15.80;99.90;;;;;;5059955;28;20037;-75
2021/10/21 00:38:29;;;;;;;3.28;1.10;;;15.60;99.90;;;;;;5085471;28;20089;-74
2021/10/21 00:40:55;;;;;;;2.05;1.00;;;15.50;99.90;;;;;;5059857;28;20022;-86
2021/10/21 00:43:20;;;;;;;5.60;1.35;;;15.30;99.90;;;;;;5074308;28;20059;-85
2021/10/21 00:45:46;;;;;;;2.42;1.05;;;15.20;99.90;;;;;;5079889;28;20035;-73
2021/10/21 00:48:12;;;;;;;2.17;0.85;;;15.20;99.90;;;;;;5060705;28;20056;-74
2021/10/21 00:50:39;;;;;;;4.50;1.50;;;15.10;99.90;;;;;;5074356;28;20055;-75
2021/10/21 00:53:05;;;;;;;2.08;1.10;;;15.00;99.90;;;;;;5087433;28;20024;-79
2021/10/21 00:55:32;;;;;;;1.67;0.82;;;14.90;99.90;;;;;;5083996;28;20031;-77
2021/10/21 00:57:58;;;;;;;3.15;1.30;;;14.80;99.90;;;;;;5081925;28;20036;-73
2021/10/21 01:00:24;;;;;;;2.53;1.17;;;14.80;99.90;;;;;;5079656;28;20106;-72
2021/10/21 01:02:50;;;;;;;3.72;1.38;;;14.80;99.90;;;;;;5082749;28;20111;-75
2021/10/21 01:05:15;;;;;;;3.25;1.25;;;14.70;99.90;;;;;;5068786;28;20043;-73
2021/10/21 01:07:41;;;;;;;2.05;0.95;;;14.70;99.90;;;;;;5083611;28;20024;-74
2021/10/21 01:10:08;;;;;;;3.40;0.98;;;14.70;99.90;;;;;;5076184;28;20074;-72
2021/10/21 01:12:35;;;;;;;0.77;0.70;;;14.70;99.90;;;;;;5069246;28;20122;-76
2021/10/21 01:15:33;;;;;;;2.33;1.25;;;14.60;99.90;;;;;;5084497;28;20089;-73
2021/10/21 01:17:59;;;;;;;2.35;1.10;;;14.70;99.90;;;;;;5024724;28;20112;-72
2021/10/21 01:20:25;;;;;;;1.98;1.00;;;;;;;;;;5080668;28;20107;-82
2021/10/21 01:22:51;;;;;;;2.42;0.98;;;14.70;99.90;;;;;;5079802;28;20023;-81
2021/10/21 01:25:18;;;;;;;4.88;1.52;;;14.70;99.90;;;;;;5079991;28;20098;-76
2021/10/21 01:27:46;;;;;;;2.67;1.23;;;14.70;99.90;;;;;;5081343;28;20375;-76
2021/10/21 01:30:23;;;;;;;2.53;1.33;;;14.60;99.90;;;;;;5075932;28;20481;-76
2021/10/21 01:32:50;;;;;;;4.15;1.55;;;14.60;99.90;;;;;;5078822;28;20383;-76
2021/10/21 01:35:16;;;;;;;4.07;1.45;;;14.60;99.90;;;;;;5080688;28;20028;-76
2021/10/21 01:37:42;;;;;;;2.88;1.20;;;14.70;99.90;;;;;;5092799;28;20437;-74
2021/10/21 01:40:12;;;;;;;2.25;0.98;;;14.70;99.90;;;;;;5083150;28;20035;-72
2021/10/21 01:42:39;;;;;;;1.55;0.90;;;14.60;99.90;;;;;;5084456;28;20035;-71
2021/10/21 01:45:21;;;;;;;1.58;0.90;;;14.60;99.90;;;;;;5072387;28;20038;-72
2021/10/21 01:47:47;;;;;;;0.85;0.77;;;14.50;99.90;;;;;;5082055;28;20460;-73
2021/10/21 01:50:13;;;;;;;1.38;0.88;;;14.60;99.90;;;;;;5077823;28;20037;-72
2021/10/21 01:52:39;;;;;;;8.95;0.88;;;14.50;99.90;;;;;;5077475;28;20074;-72
2021/10/21 01:55:06;;;;;;;4.13;1.38;;;14.40;99.90;;;;;;5086774;28;20051;-85
2021/10/21 01:57:32;;;;;;;1.35;0.80;;;14.50;99.90;;;;;;5066702;28;20403;-86
2021/10/21 01:59:57;;;;;;;0.75;0.75;;;14.50;99.90;;;;;;5088688;28;20099;-85
2021/10/21 02:02:23;;;;;;;1.15;0.70;;;14.50;99.90;;;;;;5079131;28;20032;-85
2021/10/21 02:04:49;;;;;;;2.88;0.85;;;14.60;99.90;;;;;;5066601;28;20111;-76
2021/10/21 02:07:14;;;;;;;1.48;0.90;;;14.60;99.90;;;;;;5091328;28;20020;-76
2021/10/21 02:09:40;;;;;;;1.50;0.85;;;14.60;99.90;;;;;;5078163;28;20066;-75
2021/10/21 02:12:06;;;;;;;2.65;1.10;;;14.60;99.90;;;;;;5083092;28;20035;-76
2021/10/21 02:14:31;;;;;;;2.63;0.80;;;14.60;99.90;;;;;;5084194;28;20119;-76
2021/10/21 02:16:58;;;;;;;1.65;0.80;;;14.50;99.90;;;;;;5090735;28;20028;-76
2021/10/21 02:19:24;;;;;;;0.93;0.73;;;14.40;99.90;;;;;;5090683;28;20491;-76
2021/10/21 02:21:50;;;;;;;0.60;0.60;;;14.40;99.90;;;;;;5086100;28;20479;-80
2021/10/21 02:24:15;;;;;;;5.43;1.25;;;14.40;99.90;;;;;;5082206;28;20032;-81
2021/10/21 02:26:41;;;;;;;3.63;0.82;;;14.40;99.90;;;;;;5082573;28;20099;-72
2021/10/21 02:29:06;;;;;;;1.20;0.80;;;14.30;99.90;;;;;;5072244;28;20105;-72
2021/10/21 02:31:32;;;;;;;3.88;1.40;;;14.30;99.90;;;;;;5083933;28;20467;-75
2021/10/21 02:33:58;;;;;;;0.82;0.80;;;14.20;99.90;;;;;;5078022;28;20017;-80
2021/10/21 02:36:23;;;;;;;0.60;0.60;;;;;;;;;;5077381;28;20484;-80
2021/10/21 02:38:49;;;;;;;0.60;0.60;;;14.00;99.90;;;;;;5085723;28;20020;-79
2021/10/21 02:41:15;;;;;;;1.27;0.88;;;14.00;99.90;;;;;;5081488;28;20028;-75
2021/10/21 02:43:42;;;;;;;4.45;0.93;;;13.70;99.90;;;;;;5084235;28;20047;-77
2021/10/21 02:46:08;;;;;;;0.98;0.70;;;13.60;99.90;;;;;;5081027;28;20025;-76
2021/10/21 02:48:34;;;;;;;1.85;0.85;;;13.70;99.90;;;;;;5077364;28;20028;-78
2021/10/21 02:50:59;;;;;;;6.18;0.80;;;13.80;99.90;;;;;;5071647;28;20444;-75
2021/10/21 02:53:25;;;;;;;2.53;1.13;;;13.60;99.90;;;;;;5082466;28;20099;-76
2021/10/21 02:55:50;;;;;;;0.60;0.60;;;13.50;99.90;;;;;;5088203;28;20472;-74
2021/10/21 02:58:16;;;;;;;1.00;0.60;;;13.60;99.90;;;;;;5082932;28;20048;-75
2021/10/21 03:00:42;;;;;;;0.60;0.60;;;13.60;99.90;;;;;;5080189;28;20050;-76
2021/10/21 03:03:07;;;;;;;3.63;0.93;;;13.70;99.90;;;;;;5064132;28;20043;-74
2021/10/21 03:05:33;;;;;;;0.60;0.60;;;13.60;99.90;;;;;;5079823;28;20485;-75
2021/10/21 03:08:00;;;;;;;1.52;0.70;;;13.50;99.90;;;;;;5082654;28;20074;-75
2021/10/21 03:10:25;;;;;;;1.75;0.85;;;13.40;99.90;;;;;;5084721;28;20020;-78
2021/10/21 03:12:51;;;;;;;0.60;0.60;;;13.40;99.90;;;;;;5082243;28;20027;-76
2021/10/21 03:15:16;;;;;;;2.17;0.93;;;13.50;99.90;;;;;;5080534;28;20123;-77
2021/10/21 03:17:42;;;;;;;0.65;0.60;;;13.50;99.90;;;;;;5078889;28;20082;-78
2021/10/21 03:20:13;;;;;;;0.52;0.52;;;13.50;99.90;;;;;;5073567;28;20514;-69
2021/10/21 03:22:40;;;;;;;9.32;1.08;;;13.50;99.90;;;;;;5078350;28;20039;-75
2021/10/21 03:25:07;;;;;;;2.25;0.70;;;13.40;99.90;;;;;;5079278;28;20371;-76
2021/10/21 03:27:33;;;;;;;15.90;0.80;;;13.40;99.90;;;;;;5089674;28;20012;-78
2021/10/21 03:29:59;;;;;;;3.03;0.93;;;13.50;99.90;;;;;;5090682;28;20531;-76
2021/10/21 03:32:25;;;;;;;0.60;0.60;;;13.50;99.90;;;;;;5086878;28;20031;-69
2021/10/21 03:34:50;;;;;;;1.02;0.80;;;13.30;99.90;;;;;;5082419;28;20024;-70
2021/10/21 03:37:16;;;;;;;1.02;0.90;;;12.70;99.90;;;;;;5079823;28;20028;-69
2021/10/21 03:39:42;;;;;;;1.67;0.70;;;12.60;99.90;;;;;;5081269;28;20074;-69
2021/10/21 03:42:08;;;;;;;0.60;0.60;;;12.50;99.90;;;;;;5068975;28;20020;-70
2021/10/21 03:44:36;;;;;;;0.82;0.68;;;12.30;99.90;;;;;;5079121;28;20062;-68
2021/10/21 03:47:03;;;;;;;1.60;0.90;;;12.20;99.90;;;;;;5082430;28;20428;-69
2021/10/21 03:49:28;;;;;;;2.33;0.80;;;12.10;99.90;;;;;;5075704;28;20060;-68
2021/10/21 03:51:54;;;;;;;2.95;0.90;;;12.00;99.90;;;;;;5061606;28;20063;-68
2021/10/21 03:54:20;;;;;;;0.68;0.63;;;11.90;99.90;;;;;;5081275;28;20111;-68
2021/10/21 03:56:45;;;;;;;1.40;0.93;;;11.90;99.90;;;;;;5079841;28;20028;-68
2021/10/21 03:59:11;;;;;;;1.02;0.73;;;12.00;99.90;;;;;;5086261;28;20031;-69
2021/10/21 04:01:36;;;;;;;0.85;0.68;;;12.00;99.90;;;;;;5082234;28;20028;-68
2021/10/21 04:04:02;;;;;;;0.65;0.60;;;12.00;99.90;;;;;;5080249;28;20510;-68
2021/10/21 04:06:28;;;;;;;0.65;0.65;;;12.00;99.90;;;;;;5079037;28;20032;-69
2021/10/21 04:08:54;;;;;;;0.80;0.80;;;12.10;99.90;;;;;;5068531;28;20017;-69
2021/10/21 04:11:19;;;;;;;0.77;0.70;;;12.10;99.90;;;;;;5078953;28;20024;-73
2021/10/21 04:13:45;;;;;;;2.95;0.77;;;12.00;99.90;;;;;;5076125;28;20121;-75
2021/10/21 04:16:11;;;;;;;2.03;0.88;;;11.80;99.90;;;;;;5080111;28;20036;-76
2021/10/21 04:18:36;;;;;;;0.60;0.60;;;11.70;99.90;;;;;;5082059;28;20052;-75
2021/10/21 04:21:02;;;;;;;3.75;0.70;;;11.70;99.90;;;;;;5082645;28;20453;-77
2021/10/21 04:23:27;;;;;;;0.63;0.63;;;11.70;99.90;;;;;;5085250;28;20036;-75
2021/10/21 04:25:53;;;;;;;0.63;0.63;;;11.70;99.90;;;;;;5081977;28;20036;-77
2021/10/21 04:28:19;;;;;;;0.60;0.60;;;11.70;99.90;;;;;;5084579;28;20372;-76
2021/10/21 04:30:45;;;;;;;0.60;0.60;;;;;;;;;;5082367;28;20048;-75
2021/10/21 04:33:11;;;;;;;0.63;0.63;;;11.80;99.90;;;;;;5084831;28;20384;-78
2021/10/21 04:35:37;;;;;;;0.93;0.90;;;11.90;99.90;;;;;;5085423;28;20020;-78
2021/10/21 04:38:02;;;;;;;2.75;0.77;;;11.80;99.90;;;;;;5067372;28;20123;-77
2021/10/21 04:40:28;;;;;;;0.73;0.73;;;11.80;99.90;;;;;;5083718;28;20071;-75
2021/10/21 04:42:54;;;;;;;0.75;0.63;;;11.90;99.90;;;;;;5082938;28;20048;-74
2021/10/21 04:45:19;;;;;;;0.93;0.70;;;11.80;99.90;;;;;;5053056;28;20107;-74
2021/10/21 04:47:45;;;;;;;1.10;0.60;;;11.70;99.90;;;;;;5067433;28;20120;-69
2021/10/21 04:50:11;;;;;;;1.05;0.77;;;11.70;99.90;;;;;;5073414;28;20020;-69
2021/10/21 04:52:37;;;;;;;0.60;0.60;;;11.50;99.90;;;;;;5068739;28;20020;-69
2021/10/21 04:55:06;;;;;;;0.60;0.60;;;11.40;99.90;;;;;;5071737;28;20558;-69
2021/10/21 04:57:31;;;;;;;8.70;0.80;;;11.30;99.90;;;;;;5069941;28;20047;-69
2021/10/21 04:59:57;;;;;;;1.80;0.70;;;11.30;99.90;;;;;;5074648;28;20336;-70
2021/10/21 05:02:23;;;;;;;0.68;0.68;;;11.20;99.90;;;;;;5072451;28;20027;-70
2021/10/21 05:04:48;;;;;;;0.60;0.60;;;11.20;99.90;;;;;;5073296;28;20024;-69
2021/10/21 05:07:14;;;;;;;0.70;0.60;;;11.20;99.90;;;;;;5071351;28;20491;-69
2021/10/21 05:09:39;;;;;;;0.60;0.60;;;11.20;99.90;;;;;;5056891;28;20028;-69
2021/10/21 05:12:05;;;;;;;0.63;0.60;;;11.20;99.90;;;;;;5070417;28;20071;-69
2021/10/21 05:14:31;;;;;;;1.08;0.70;;;11.20;99.90;;;;;;5077975;28;20684;-70
2021/10/21 05:16:57;;;;;;;1.05;0.80;;;11.10;99.90;;;;;;5074353;28;20510;-69
2021/10/21 05:19:22;;;;;;;0.70;0.70;;;11.10;99.90;;;;;;5074357;28;20032;-70
2021/10/21 05:21:48;;;;;;;1.75;0.95;;;11.10;99.90;;;;;;5070931;28;20032;-69
2021/10/21 05:24:14;;;;;;;0.70;0.70;;;11.00;99.90;;;;;;5055813;28;20146;-70
2021/10/21 05:26:40;;;;;;;0.70;0.70;;;10.90;99.90;;;;;;5074747;28;20020;-70
2021/10/21 05:29:05;;;;;;;0.60;0.60;;;10.90;99.90;;;;;;5055649;28;20020;-70
2021/10/21 05:31:31;;;;;;;0.68;0.68;;;10.80;99.90;;;;;;5073368;28;20050;-70
2021/10/21 05:33:57;;;;;;;5.55;0.70;;;10.80;99.90;;;;;;5073867;28;20468;-69
2021/10/21 05:36:22;;;;;;;5.43;0.90;;;10.80;99.90;;;;;;5073656;28;20029;-66
2021/10/21 05:38:49;;;;;;;0.70;0.70;;;10.80;99.90;;;;;;5056012;28;20024;-66
2021/10/21 05:41:15;;;;;;;0.60;0.60;;;10.80;99.90;;;;;;5075492;28;20036;-72
2021/10/21 05:43:41;;;;;;;0.60;0.60;;;10.80;99.90;;;;;;5059201;28;20027;-72
2021/10/21 05:46:07;;;;;;;0.70;0.70;;;10.90;99.90;;;;;;5070262;28;20036;-72
2021/10/21 05:48:32;;;;;;;0.82;0.80;;;10.80;99.90;;;;;;5061540;28;20379;-73
2021/10/21 05:50:58;;;;;;;0.90;0.70;;;10.80;99.90;;;;;;5072521;28;20066;-72
2021/10/21 05:53:24;;;;;;;0.60;0.60;;;10.80;99.90;;;;;;5075491;28;20046;-74
2021/10/21 05:55:49;;;;;;;0.60;0.60;;;10.80;99.90;;;;;;5071399;28;20021;-73
2021/10/21 05:58:15;;;;;;;0.65;0.65;;;10.90;99.90;;;;;;5076621;28;20496;-74
2021/10/21 06:00:41;;;;;;;1.95;1.00;;;10.90;99.90;;;;;;5080393;28;20024;-74
2021/10/21 06:03:06;;;;;;;1.17;0.80;;;11.00;99.90;;;;;;5070184;28;20086;-69
2021/10/21 06:05:32;;;;;;;1.52;0.82;;;11.00;99.90;;;;;;5075670;28;20089;-70
2021/10/21 06:08:00;;;;;;;1.15;0.80;;;11.00;99.90;;;;;;5070342;28;20063;-70
2021/10/21 06:10:26;;;;;;;0.60;0.60;;;11.00;99.90;;;;;;5076793;28;20021;-69
2021/10/21 06:12:52;;;;;;;8.82;1.00;;;11.10;99.90;;;;;;5068986;28;20019;-69
2021/10/21 06:15:18;;;;;;;1.40;0.77;;;11.10;99.90;;;;;;5078048;28;20511;-69
2021/10/21 06:17:44;;;;;;;1.67;1.02;;;11.20;99.90;;;;;;5083886;28;20012;-69
2021/10/21 06:20:14;;;;;;;0.55;0.55;;;11.20;99.90;;;;;;5078201;28;20069;-69
2021/10/21 06:22:39;;;;;;;2.58;1.08;;;11.10;99.90;;;;;;5086248;28;20032;-70
2021/10/21 06:25:07;;;;;;;1.23;0.88;;;11.00;99.90;;;;;;5087409;28;20509;-69
2021/10/21 06:27:33;;;;;;;4.93;1.45;;;11.00;99.90;;;;;;5062182;28;20099;-70
2021/10/21 06:29:59;;;;;;;1.40;0.85;;;10.90;99.90;;;;;;5083670;28;20122;-69
2021/10/21 06:32:25;;;;;;;0.95;0.73;;;10.90;99.90;;;;;;5075284;28;20814;-69
2021/10/21 06:34:51;;;;;;;0.65;0.65;;;10.90;99.90;;;;;;5076544;28;20029;-70
2021/10/21 06:37:17;;;;;;;0.77;0.77;;;10.80;99.90;;;;;;5086064;28;20132;-70
2021/10/21 06:39:42;;;;;;;0.80;0.63;;;10.80;99.90;;;;;;5060270;28;20381;-70
2021/10/21 06:42:08;;;;;;;0.70;0.70;;;10.80;99.90;;;;;;5074654;28;20028;-69
2021/10/21 06:44:34;;;;;;;0.80;0.63;;;10.80;99.90;;;;;;5081750;28;20025;-69
2021/10/21 06:47:01;;;;;;;2.92;1.20;;;10.80;99.90;;;;;;5085498;28;20032;-70
2021/10/21 06:49:27;;;;;;;0.80;0.80;;;10.80;99.90;;;;;;5082257;28;20024;-70
2021/10/21 06:51:53;;;;;;;1.75;1.00;;;10.70;99.90;;;;;;5061408;28;20048;-69
2021/10/21 06:54:19;;;;;;;2.60;1.20;;;10.70;99.90;;;;;;5086954;28;20101;-70
2021/10/21 06:56:44;;;;;;;1.98;1.15;;;10.70;99.90;;;;;;5088624;28;20086;-70
2021/10/21 06:59:10;;;;;;;8.55;3.47;;;10.70;99.90;;;;;;5086491;28;20405;-70
2021/10/21 07:01:36;;;;;;;5.07;2.17;;;10.70;99.90;;;;;;5085943;28;20085;-70
2021/10/21 07:04:03;;;;;;;6.05;2.45;;;10.70;99.90;;;;;;5067059;28;20076;-71
2021/10/21 07:06:29;;;;;;;6.53;2.90;;;10.70;99.90;;;;;;5067708;28;20036;-71
2021/10/21 07:08:55;;;;;;;3.75;1.58;;;10.70;99.90;;;;;;5069331;28;20490;-71
2021/10/21 07:11:21;;;;;;;5.78;2.50;;;10.70;99.90;;;;;;5087126;28;20459;-71
2021/10/21 07:13:47;;;;;;;5.55;2.55;;;10.80;99.90;;;;;;5068793;28;20020;-71
2021/10/21 07:16:12;;;;;;;7.05;2.92;;;10.80;99.90;;;;;;5086599;28;20028;-71
2021/10/21 07:18:38;;;;;;;4.57;1.85;;;10.70;99.90;;;;;;5087105;28;20031;-71
